Time;durP1;ratioP1;P1;durP2;ratioP2;P2;SDS_P1;SDS_P2;PMS_P1;PMS_P2;Temp;Humidity;BMP_temperature;BMP_pressure;BME280_temperature;BME280_humidity;BME280_pressure;Samples;Min_cycle;Max_cycle;Signal;HPM_P1;HPM_P2
2022/10/17 00:02:09;;;;;;;;;;;12.10;99.90;;;;;;5095834;28;19908;-73
2022/10/17 00:04:34;;;;;;;;;;;12.10;99.90;;;;;;5096878;28;20003;-73
2022/10/17 00:07:00;;;;;;;;;;;12.10;99.90;;;;;;5096858;28;19953;-73
2022/10/17 00:09:26;;;;;;;;;;;12.10;99.90;;;;;;5095492;28;20549;-73
2022/10/17 00:11:51;;;;;;;;;;;12.00;99.90;;;;;;5096535;28;19930;-74
2022/10/17 00:14:17;;;;;;;;;;;12.10;99.90;;;;;;5095792;28;19908;-73
2022/10/17 00:16:42;;;;;;;;;;;12.00;99.90;;;;;;5096380;28;19942;-72
2022/10/17 00:19:08;;;;;;;;;;;12.10;99.90;;;;;;5095488;28;20357;-74
2022/10/17 00:21:33;;;;;;;;;;;12.10;99.90;;;;;;5096080;28;19959;-72
2022/10/17 00:23:59;;;;;;;;;;;12.10;99.90;;;;;;5096231;28;19908;-73
2022/10/17 00:26:27;;;;;;;;;;;12.20;99.90;;;;;;5095009;28;19922;-73
2022/10/17 00:28:52;;;;;;;;;;;12.20;99.90;;;;;;5095595;28;19908;-73
2022/10/17 00:31:19;;;;;;;;;;;12.20;99.90;;;;;;5095359;28;19961;-73
2022/10/17 00:33:45;;;;;;;;;;;12.20;99.90;;;;;;5095675;28;19912;-72
2022/10/17 00:36:18;;;;;;;;;;;12.20;99.90;;;;;;5094065;28;19962;-73
2022/10/17 00:38:45;;;;;;;;;;;12.20;99.90;;;;;;5095909;28;20075;-73
2022/10/17 00:41:12;;;;;;;;;;;12.20;99.90;;;;;;5093962;28;19958;-74
2022/10/17 00:43:55;;;;;;;;;;;12.30;99.90;;;;;;5095616;28;19912;-73
2022/10/17 00:46:21;;;;;;;;;;;12.40;99.90;;;;;;5095394;28;20003;-74
2022/10/17 00:48:48;;;;;;;;;;;12.40;99.90;;;;;;5095655;28;19916;-73
2022/10/17 00:51:14;;;;;;;;;;;12.30;99.90;;;;;;5094979;28;19908;-74
2022/10/17 00:53:40;;;;;;;;;;;12.40;99.90;;;;;;5095189;28;19908;-73
2022/10/17 00:56:05;;;;;;;;;;;12.40;99.90;;;;;;5094966;28;20311;-73
2022/10/17 00:58:31;;;;;;;;;;;12.40;99.90;;;;;;5095058;28;20281;-72
2022/10/17 01:00:57;;;;;;;;;;;12.40;99.90;;;;;;5095696;28;20004;-73
2022/10/17 01:03:22;;;;;;;;;;;12.40;99.90;;;;;;5094623;28;20044;-72
2022/10/17 01:05:48;;;;;;;;;;;12.40;99.90;;;;;;5095201;28;19908;-73
2022/10/17 01:08:14;;;;;;;;;;;12.30;99.90;;;;;;5094290;28;20469;-73
2022/10/17 01:10:56;;;;;;;;;;;12.40;99.90;;;;;;5094598;28;19909;-72
2022/10/17 01:13:45;;;;;;;;;;;12.30;99.90;;;;;;5092795;28;20416;-72
2022/10/17 01:16:29;;;;;;;;;;;12.30;99.90;;;;;;5094426;28;19911;-73
2022/10/17 01:19:01;;;;;;;;;;;12.20;99.90;;;;;;5094354;28;19920;-73
2022/10/17 01:21:27;;;;;;;;;;;12.20;99.90;;;;;;5094439;28;19915;-72
2022/10/17 01:24:07;;;;;;;;;;;12.30;99.90;;;;;;5095224;28;19912;-73
2022/10/17 01:26:45;;;;;;;;;;;12.40;99.90;;;;;;5094839;28;19908;-73
2022/10/17 01:29:43;;;;;;;;;;;12.40;99.90;;;;;;5094875;28;19908;-75
2022/10/17 01:32:16;;;;;;;;;;;12.30;99.90;;;;;;5071153;28;19908;-75
2022/10/17 01:34:45;;;;;;;;;;;12.40;99.90;;;;;;5095058;28;19908;-73
2022/10/17 01:37:17;;;;;;;;;;;12.40;99.90;;;;;;5093680;28;19923;-75
2022/10/17 01:39:53;;;;;;;;;;;12.50;99.90;;;;;;5094649;28;19908;-73
2022/10/17 01:42:24;;;;;;;;;;;12.50;99.90;;;;;;5094330;28;19941;-73
2022/10/17 01:44:54;;;;;;;;;;;12.50;99.90;;;;;;5094728;28;19920;-73
2022/10/17 01:47:22;;;;;;;;;;;12.50;99.90;;;;;;5093744;28;20442;-74
2022/10/17 01:49:50;;;;;;;;;;;12.40;99.90;;;;;;5094553;28;19951;-73
2022/10/17 01:52:21;;;;;;;;;;;12.50;99.90;;;;;;5093534;28;19912;-73
2022/10/17 01:54:59;;;;;;;;;;;12.50;99.90;;;;;;5094036;28;19931;-73
2022/10/17 01:57:30;;;;;;;;;;;12.40;99.90;;;;;;5093290;28;20000;-73
2022/10/17 01:59:56;;;;;;;;;;;12.40;99.90;;;;;;5094617;28;19946;-73
2022/10/17 02:02:22;;;;;;;;;;;12.40;99.90;;;;;;5092690;28;19955;-73
2022/10/17 02:04:49;;;;;;;;;;;12.40;99.90;;;;;;5094510;28;19914;-73
2022/10/17 02:07:15;;;;;;;;;;;12.40;99.90;;;;;;5093405;28;19912;-74
2022/10/17 02:09:40;;;;;;;;;;;12.40;99.90;;;;;;5093747;28;20387;-73
2022/10/17 02:12:06;;;;;;;;;;;12.40;99.90;;;;;;5094728;28;19915;-73
2022/10/17 02:14:37;;;;;;;;;;;12.40;99.90;;;;;;5093591;28;20085;-74
2022/10/17 02:17:16;;;;;;;;;;;12.40;99.90;;;;;;5093830;28;19923;-73
2022/10/17 02:19:49;;;;;;;;;;;12.40;99.90;;;;;;5093768;28;20399;-73
2022/10/17 02:22:31;;;;;;;;;;;12.40;99.90;;;;;;5093460;28;19954;-75
2022/10/17 02:25:11;;;;;;;;;;;12.40;99.90;;;;;;5092873;28;19959;-73
2022/10/17 02:27:48;;;;;;;;;;;12.40;99.90;;;;;;5093829;28;19998;-73
2022/10/17 02:30:18;;;;;;;;;;;12.40;99.90;;;;;;5093641;28;19954;-74
2022/10/17 02:32:44;;;;;;;;;;;12.50;99.90;;;;;;5092911;28;19991;-74
2022/10/17 02:35:12;;;;;;;;;;;12.50;99.90;;;;;;5093666;28;20016;-72
2022/10/17 02:37:39;;;;;;;;;;;12.60;99.90;;;;;;5092969;28;19916;-73
2022/10/17 02:40:06;;;;;;;;;;;12.50;99.90;;;;;;5093842;28;19912;-74
2022/10/17 02:42:31;;;;;;;;;;;12.40;99.90;;;;;;5093174;28;20111;-73
2022/10/17 02:44:59;;;;;;;;;;;12.40;99.90;;;;;;5093418;28;20384;-73
2022/10/17 02:47:33;;;;;;;;;;;12.40;99.90;;;;;;5092908;28;19922;-74
2022/10/17 02:49:59;;;;;;;;;;;12.40;99.90;;;;;;5093680;28;19908;-74
2022/10/17 02:52:36;;;;;;;;;;;12.30;99.90;;;;;;5092758;28;20061;-74
2022/10/17 02:55:15;;;;;;;;;;;12.30;99.90;;;;;;5092217;28;19947;-73
2022/10/17 02:57:43;;;;;;;;;;;12.20;99.90;;;;;;5092534;28;19924;-74
2022/10/17 03:00:10;;;;;;;;;;;12.20;99.90;;;;;;5092995;28;19997;-74
2022/10/17 03:02:43;;;;;;;;;;;12.20;99.90;;;;;;5092670;28;20365;-73
2022/10/17 03:05:10;;;;;;;;;;;12.20;99.90;;;;;;5093037;28;19915;-73
2022/10/17 03:07:35;;;;;;;;;;;12.10;99.90;;;;;;5092839;28;20422;-74
2022/10/17 03:10:01;;;;;;;;;;;12.20;99.90;;;;;;5093399;28;19909;-73
2022/10/17 03:12:27;;;;;;;;;;;12.20;99.90;;;;;;5092828;28;19930;-74
2022/10/17 03:14:52;;;;;;;;;;;12.30;99.90;;;;;;5091980;28;19955;-74
2022/10/17 03:17:18;;;;;;;;;;;12.30;99.90;;;;;;5092059;28;19916;-72
2022/10/17 03:19:43;;;;;;;;;;;12.20;99.90;;;;;;5092760;28;20404;-74
2022/10/17 03:22:09;;;;;;;;;;;12.20;99.90;;;;;;5092811;28;20293;-74
2022/10/17 03:24:34;;;;;;;;;;;12.20;99.90;;;;;;5091236;28;19908;-73
2022/10/17 03:27:00;;;;;;;;;;;12.20;99.90;;;;;;5093146;28;19908;-74
2022/10/17 03:29:25;;;;;;;;;;;12.20;99.90;;;;;;5092250;28;20010;-73
2022/10/17 03:31:51;;;;;;;;;;;12.20;99.90;;;;;;5092650;28;19908;-74
2022/10/17 03:34:17;;;;;;;;;;;12.10;99.90;;;;;;5092395;28;20007;-74
2022/10/17 03:36:43;;;;;;;;;;;12.10;99.90;;;;;;5092280;28;19908;-74
2022/10/17 03:39:09;;;;;;;;;;;12.10;99.90;;;;;;5092888;28;20334;-73
2022/10/17 03:41:34;;;;;;;;;;;12.00;99.90;;;;;;5091932;28;19912;-73
2022/10/17 03:44:00;;;;;;;;;;;12.00;99.90;;;;;;5092534;28;20363;-73
2022/10/17 03:46:26;;;;;;;;;;;12.00;99.90;;;;;;5092355;28;19913;-74
2022/10/17 03:48:51;;;;;;;;;;;12.00;99.90;;;;;;5093305;28;20273;-74
2022/10/17 03:51:17;;;;;;;;;;;12.00;99.90;;;;;;5092163;28;19912;-76
2022/10/17 03:53:42;;;;;;;;;;;12.00;99.90;;;;;;5091488;28;20381;-75
2022/10/17 03:56:34;;;;;;;;;;;12.00;99.90;;;;;;5092933;28;19908;-74
2022/10/17 03:58:59;;;;;;;;;;;12.00;99.90;;;;;;5090758;28;19923;-74
2022/10/17 04:01:25;;;;;;;;;;;11.90;99.90;;;;;;5091749;28;19912;-75
2022/10/17 04:03:52;;;;;;;;;;;11.90;99.90;;;;;;5092731;28;19989;-74
2022/10/17 04:06:18;;;;;;;;;;;11.80;99.90;;;;;;5091888;28;19908;-76
2022/10/17 04:08:43;;;;;;;;;;;11.90;99.90;;;;;;5092635;28;19977;-74
2022/10/17 04:11:11;;;;;;;;;;;11.90;99.90;;;;;;5092630;28;19912;-74
2022/10/17 04:13:37;;;;;;;;;;;11.90;99.90;;;;;;5091837;28;20089;-73
2022/10/17 04:16:04;;;;;;;;;;;11.90;99.90;;;;;;5092444;28;20381;-72
2022/10/17 04:18:30;;;;;;;;;;;11.90;99.90;;;;;;5091890;28;20003;-74
2022/10/17 04:20:55;;;;;;;;;;;11.80;99.90;;;;;;5092016;28;20003;-74
2022/10/17 04:23:21;;;;;;;;;;;11.80;99.90;;;;;;5092233;28;20323;-74
2022/10/17 04:25:47;;;;;;;;;;;11.80;99.90;;;;;;5091860;28;19908;-74
2022/10/17 04:28:13;;;;;;;;;;;11.70;99.90;;;;;;5092527;28;19908;-75
2022/10/17 04:30:39;;;;;;;;;;;11.70;99.90;;;;;;5091805;28;19935;-76
2022/10/17 04:33:04;;;;;;;;;;;11.70;99.90;;;;;;5095986;28;19919;-74
2022/10/17 04:35:30;;;;;;;;;;;11.70;99.90;;;;;;5095573;28;19908;-75
2022/10/17 04:37:56;;;;;;;;;;;11.70;99.90;;;;;;5095950;28;19959;-74
2022/10/17 04:40:21;;;;;;;;;;;11.70;99.90;;;;;;5094709;28;20002;-73
2022/10/17 04:42:47;;;;;;;;;;;11.70;99.90;;;;;;5096039;28;19908;-74
2022/10/17 04:45:13;;;;;;;;;;;11.70;99.90;;;;;;5095942;28;19927;-73
2022/10/17 04:47:38;;;;;;;;;;;11.70;99.90;;;;;;5095455;28;19950;-74
2022/10/17 04:50:04;;;;;;;;;;;11.80;99.90;;;;;;5095817;28;19957;-74
2022/10/17 04:52:33;;;;;;;;;;;11.70;99.90;;;;;;5093361;28;21349;-74
2022/10/17 04:54:59;;;;;;;;;;;11.70;99.90;;;;;;5095888;28;20034;-72
2022/10/17 04:57:24;;;;;;;;;;;11.70;99.90;;;;;;5095074;28;20053;-75
2022/10/17 04:59:50;;;;;;;;;;;11.70;99.90;;;;;;5095328;28;19908;-73
2022/10/17 05:02:15;;;;;;;;;;;11.70;99.90;;;;;;5095396;28;20003;-73
2022/10/17 05:04:41;;;;;;;;;;;11.70;99.90;;;;;;5095021;28;19908;-74
2022/10/17 05:07:07;;;;;;;;;;;11.60;99.90;;;;;;5095222;28;19908;-73
2022/10/17 05:09:32;;;;;;;;;;;11.60;99.90;;;;;;5093840;28;20014;-74
2022/10/17 05:11:58;;;;;;;;;;;11.60;99.90;;;;;;5095203;28;19908;-74
2022/10/17 05:14:23;;;;;;;;;;;11.60;99.90;;;;;;5094966;28;19961;-74
2022/10/17 05:16:49;;;;;;;;;;;11.60;99.90;;;;;;5095247;28;20361;-74
2022/10/17 05:19:16;;;;;;;;;;;11.60;99.90;;;;;;5095165;28;19918;-73
2022/10/17 05:21:41;;;;;;;;;;;11.60;99.90;;;;;;5094063;28;19912;-74
2022/10/17 05:24:07;;;;;;;;;;;11.60;99.90;;;;;;5095344;28;20434;-74
2022/10/17 05:26:33;;;;;;;;;;;11.50;99.90;;;;;;5094479;28;19998;-74
2022/10/17 05:29:01;;;;;;;;;;;11.50;99.90;;;;;;5095189;28;19991;-74
2022/10/17 05:31:27;;;;;;;;;;;11.60;99.90;;;;;;5094160;28;19908;-72
2022/10/17 05:33:53;;;;;;;;;;;11.60;99.90;;;;;;5095126;28;19915;-74
2022/10/17 05:36:18;;;;;;;;;;;11.60;99.90;;;;;;5095053;28;19912;-75
2022/10/17 05:38:47;;;;;;;;;;;11.60;99.90;;;;;;5094299;28;19926;-73
2022/10/17 05:41:13;;;;;;;;;;;11.60;99.90;;;;;;5092517;28;19908;-74
2022/10/17 05:43:38;;;;;;;;;;;11.60;99.90;;;;;;5092021;28;19919;-74
2022/10/17 05:46:04;;;;;;;;;;;11.60;99.90;;;;;;5092407;28;19924;-74
2022/10/17 05:48:30;;;;;;;;;;;11.60;99.90;;;;;;5094065;28;19913;-75
2022/10/17 05:50:56;;;;;;;;;;;11.60;99.90;;;;;;5094319;28;20018;-75
2022/10/17 05:53:22;;;;;;;;;;;11.60;99.90;;;;;;5093972;28;19908;-74
2022/10/17 05:55:54;;;;;;;;;;;11.60;99.90;;;;;;5092930;28;20322;-74
2022/10/17 05:58:19;;;;;;;;;;;11.60;99.90;;;;;;5094621;28;19916;-73
2022/10/17 06:00:45;;;;;;;;;;;11.60;99.90;;;;;;5093654;28;19912;-73
2022/10/17 06:03:10;;;;;;;;;;;11.60;99.90;;;;;;5093809;28;19958;-75
2022/10/17 06:05:36;;;;;;;;;;;11.60;99.90;;;;;;5093900;28;20320;-75
2022/10/17 06:08:01;;;;;;;;;;;11.60;99.90;;;;;;5093097;28;19938;-73
2022/10/17 06:10:27;;;;;;;;;;;11.60;99.90;;;;;;5094109;28;20357;-74
2022/10/17 06:12:53;;;;;;;;;;;11.60;99.90;;;;;;5092911;28;19908;-75
2022/10/17 06:15:18;;;;;;;;;;;11.60;99.90;;;;;;5093977;28;19961;-74
2022/10/17 06:17:44;;;;;;;;;;;11.70;99.90;;;;;;5093401;28;19923;-74
2022/10/17 06:20:09;;;;;;;;;;;11.70;99.90;;;;;;5092572;28;20384;-74
2022/10/17 06:22:35;;;;;;;;;;;11.60;99.90;;;;;;5092594;28;19916;-74
2022/10/17 06:25:00;;;;;;;;;;;11.60;99.90;;;;;;5093999;28;19924;-74
2022/10/17 06:27:26;;;;;;;;;;;11.60;99.90;;;;;;5092938;28;19918;-74
2022/10/17 06:29:51;;;;;;;;;;;11.60;99.90;;;;;;5093602;28;19908;-73
2022/10/17 06:32:17;;;;;;;;;;;11.60;99.90;;;;;;5093478;28;20348;-73
2022/10/17 06:34:43;;;;;;;;;;;11.60;99.90;;;;;;5091529;28;20489;-73
2022/10/17 06:37:08;;;;;;;;;;;11.60;99.90;;;;;;5093772;28;19923;-73
2022/10/17 06:39:34;;;;;;;;;;;11.50;99.90;;;;;;5093025;28;20114;-75
2022/10/17 06:42:00;;;;;;;;;;;11.50;99.90;;;;;;5093042;28;19908;-74
2022/10/17 06:44:30;;;;;;;;;;;11.50;99.90;;;;;;5092723;28;19920;-75
2022/10/17 06:46:59;;;;;;;;;;;11.60;99.90;;;;;;5092466;28;19908;-75
2022/10/17 06:49:25;;;;;;;;;;;11.60;99.90;;;;;;5092728;28;19923;-75
2022/10/17 06:51:51;;;;;;;;;;;11.60;99.90;;;;;;5091736;28;19998;-74
2022/10/17 06:54:17;;;;;;;;;;;11.60;99.90;;;;;;5093137;28;20083;-73
2022/10/17 06:56:42;;;;;;;;;;;11.50;99.90;;;;;;5092924;28;19963;-74
2022/10/17 06:59:08;;;;;;;;;;;11.50;99.90;;;;;;5093221;28;19908;-74
2022/10/17 07:01:34;;;;;;;;;;;11.60;99.90;;;;;;5092283;28;19908;-74
2022/10/17 07:03:59;;;;;;;;;;;11.60;99.90;;;;;;5093462;28;19914;-74
2022/10/17 07:06:25;;;;;;;;;;;11.60;99.90;;;;;;5091982;28;19915;-75
2022/10/17 07:08:51;;;;;;;;;;;11.50;99.90;;;;;;5092659;28;19908;-74
2022/10/17 07:11:20;;;;;;;;;;;11.50;99.90;;;;;;5092452;28;19916;-73
2022/10/17 07:13:46;;;;;;;;;;;11.50;99.90;;;;;;5091928;28;19914;-74
2022/10/17 07:16:12;;;;;;;;;;;11.50;99.90;;;;;;5092310;28;20323;-74
2022/10/17 07:18:38;;;;;;;;;;;11.60;99.90;;;;;;5091812;28;19969;-75
2022/10/17 07:21:04;;;;;;;;;;;11.50;99.90;;;;;;5092722;28;19943;-74
2022/10/17 07:23:30;;;;;;;;;;;11.60;99.90;;;;;;5092104;28;20361;-75
2022/10/17 07:26:00;;;;;;;;;;;11.60;99.90;;;;;;5090686;28;19908;-74
2022/10/17 07:28:26;;;;;;;;;;;11.60;99.90;;;;;;5092082;28;20323;-76
2022/10/17 07:30:52;;;;;;;;;;;11.70;99.90;;;;;;5091355;28;19915;-74
2022/10/17 07:33:17;;;;;;;;;;;11.70;99.90;;;;;;5092704;28;19908;-75
2022/10/17 07:35:43;;;;;;;;;;;11.80;99.90;;;;;;5092414;28;19908;-74
2022/10/17 07:38:08;;;;;;;;;;;11.90;99.90;;;;;;5093106;28;19959;-75
2022/10/17 07:40:34;;;;;;;;;;;12.00;99.90;;;;;;5092163;28;20296;-74
2022/10/17 07:42:59;;;;;;;;;;;12.10;99.90;;;;;;5092506;28;19908;-74
2022/10/17 07:45:26;;;;;;;;;;;12.10;99.90;;;;;;5092547;28;20360;-74
2022/10/17 07:47:56;;;;;;;;;;;12.20;99.90;;;;;;5091980;28;19908;-74
2022/10/17 07:50:21;;;;;;;;;;;12.40;99.90;;;;;;5092508;28;19915;-75
2022/10/17 07:52:47;;;;;;;;;;;12.40;99.90;;;;;;5092075;28;19934;-74
2022/10/17 07:55:12;;;;;;;;;;;12.50;99.90;;;;;;5092301;28;19909;-74
2022/10/17 07:57:39;;;;;;;;;;;12.50;99.90;;;;;;5091724;28;19916;-74
2022/10/17 08:00:05;;;;;;;;;;;12.60;99.90;;;;;;5092461;28;19912;-74
2022/10/17 08:02:31;;;;;;;;;;;12.60;99.90;;;;;;5090909;28;20337;-73
2022/10/17 08:04:56;;;;;;;;;;;12.60;99.90;;;;;;5091066;28;19971;-72
2022/10/17 08:07:22;;;;;;;;;;;12.70;99.90;;;;;;5094854;28;20448;-73
2022/10/17 08:09:48;;;;;;;;;;;12.70;99.90;;;;;;5127846;27;19908;-74
2022/10/17 08:12:14;;;;;;;;;;;12.70;99.90;;;;;;5095865;28;19975;-73
2022/10/17 08:14:40;;;;;;;;;;;12.70;99.90;;;;;;5095523;28;19908;-73
2022/10/17 08:17:05;;;;;;;;;;;12.70;99.90;;;;;;5095904;28;19920;-74
2022/10/17 08:19:31;;;;;;;;;;;12.70;99.90;;;;;;5099758;28;19976;-74
2022/10/17 08:21:58;;;;;;;;;;;12.80;99.90;;;;;;5116930;28;20360;-74
2022/10/17 08:24:23;;;;;;;;;;;12.70;99.90;;;;;;5097125;28;19908;-74
2022/10/17 08:26:49;;;;;;;;;;;12.80;99.90;;;;;;5095341;28;19912;-74
2022/10/17 08:29:15;;;;;;;;;;;12.90;99.90;;;;;;5094953;28;19947;-73
2022/10/17 08:31:41;;;;;;;;;;;12.90;99.90;;;;;;5095317;28;20011;-74
2022/10/17 08:34:07;;;;;;;;;;;13.00;99.90;;;;;;5095508;28;19908;-74
2022/10/17 08:36:32;;;;;;;;;;;13.00;99.90;;;;;;5094871;28;19916;-74
2022/10/17 08:38:58;;;;;;;;;;;12.90;99.90;;;;;;5095452;28;19922;-73
2022/10/17 08:41:42;;;;;;;;;;;12.90;99.90;;;;;;5095171;28;20007;-74
2022/10/17 08:44:07;;;;;;;;;;;12.90;99.90;;;;;;5091941;28;20369;-73
2022/10/17 08:46:35;;;;;;;;;;;12.90;99.90;;;;;;5091965;28;19912;-75
2022/10/17 08:49:03;;;;;;;;;;;12.90;99.90;;;;;;5093285;28;19908;-73
2022/10/17 08:51:32;;;;;;;;;;;12.90;99.90;;;;;;5093830;28;19991;-74
2022/10/17 08:54:04;;;;;;;;;;;13.00;99.90;;;;;;5094500;28;19908;-74
2022/10/17 08:56:37;;;;;;;;;;;13.00;99.90;;;;;;5094727;28;20021;-74
2022/10/17 08:59:04;;;;;;;;;;;13.10;99.90;;;;;;5094220;28;20296;-74
2022/10/17 09:01:33;;;;;;;;;;;13.10;99.90;;;;;;5095068;28;20021;-74
2022/10/17 09:04:16;;;;;;;;;;;13.10;99.90;;;;;;5095393;28;19909;-73
2022/10/17 09:06:50;;;;;;;;;;;13.10;99.90;;;;;;5093289;28;19916;-73
2022/10/17 09:09:23;;;;;;;;;;;13.10;99.90;;;;;;5094848;28;19908;-74
2022/10/17 09:12:04;;;;;;;;;;;13.10;99.90;;;;;;5093771;28;20003;-74
2022/10/17 09:14:41;;;;;;;;;;;13.10;99.90;;;;;;5094524;28;19915;-74
2022/10/17 09:17:26;;;;;;;;;;;13.00;99.90;;;;;;5094691;28;19916;-74
2022/10/17 09:19:51;;;;;;;;;;;12.90;99.90;;;;;;5093287;28;19908;-73
2022/10/17 09:22:22;;;;;;;;;;;13.00;99.90;;;;;;5094645;28;19962;-73
2022/10/17 09:24:52;;;;;;;;;;;13.00;99.90;;;;;;5094379;28;19909;-73
2022/10/17 09:27:17;;;;;;;;;;;13.00;99.90;;;;;;5094851;28;19908;-73
2022/10/17 09:29:45;;;;;;;;;;;13.00;99.90;;;;;;5094320;28;19931;-74
2022/10/17 09:32:13;;;;;;;;;;;12.90;99.90;;;;;;5094624;28;19954;-73
2022/10/17 09:34:39;;;;;;;;;;;12.90;99.90;;;;;;5093961;28;19908;-73
2022/10/17 09:37:10;;;;;;;;;;;13.00;99.90;;;;;;5093886;28;19973;-74
2022/10/17 09:39:35;;;;;;;;;;;13.00;99.90;;;;;;5092833;28;19934;-73
2022/10/17 09:42:01;;;;;;;;;;;13.00;99.90;;;;;;5095195;28;20349;-74
2022/10/17 09:44:46;;;;;;;;;;;12.90;99.90;;;;;;5094146;28;20379;-74
2022/10/17 09:47:17;;;;;;;;;;;12.90;99.90;;;;;;5094447;28;19959;-74
2022/10/17 09:49:44;;;;;;;;;;;13.00;99.90;;;;;;5093771;28;19969;-74
2022/10/17 09:52:13;;;;;;;;;;;13.10;99.90;;;;;;5094383;28;19914;-75
2022/10/17 09:54:38;;;;;;;;;;;13.10;99.90;;;;;;5093557;28;20285;-72
2022/10/17 09:57:05;;;;;;;;;;;13.20;99.90;;;;;;5093822;28;19924;-73
2022/10/17 09:59:38;;;;;;;;;;;13.30;99.90;;;;;;5093462;28;20386;-73
2022/10/17 10:02:22;;;;;;;;;;;13.20;99.90;;;;;;5094161;28;19954;-73
2022/10/17 10:04:52;;;;;;;;;;;13.20;99.90;;;;;;5093560;28;19908;-74
2022/10/17 10:07:19;;;;;;;;;;;13.30;99.90;;;;;;5093693;28;19908;-74
2022/10/17 10:09:46;;;;;;;;;;;13.40;99.90;;;;;;5093382;28;19919;-74
2022/10/17 10:12:19;;;;;;;;;;;13.50;99.90;;;;;;5093812;28;19915;-73
2022/10/17 10:14:45;;;;;;;;;;;13.60;99.90;;;;;;5093229;28;20284;-74
2022/10/17 10:17:26;;;;;;;;;;;13.70;99.90;;;;;;5092877;28;19916;-73
2022/10/17 10:19:51;;;;;;;;;;;13.70;99.90;;;;;;5091701;28;19923;-73
2022/10/17 10:22:18;;;;;;;;;;;13.60;99.90;;;;;;5093083;28;19912;-74
2022/10/17 10:24:44;;;;;;;;;;;13.60;99.90;;;;;;5093390;28;19914;-75
2022/10/17 10:27:14;;;;;;;;;;;13.70;99.90;;;;;;5093398;28;19908;-74
2022/10/17 10:29:41;;;;;;;;;;;13.70;99.90;;;;;;5092354;28;20002;-74
2022/10/17 10:32:10;;;;;;;;;;;13.70;99.90;;;;;;5093374;28;19908;-73
2022/10/17 10:34:38;;;;;;;;;;;13.60;99.90;;;;;;5092726;28;19908;-73
2022/10/17 10:37:05;;;;;;;;;;;13.60;99.90;;;;;;5092798;28;19908;-73
2022/10/17 10:39:35;;;;;;;;;;;13.70;99.90;;;;;;5092400;28;19912;-73
2022/10/17 10:42:01;;;;;;;;;;;13.70;99.90;;;;;;5093330;28;19955;-73
2022/10/17 10:44:28;;;;;;;;;;;13.80;99.90;;;;;;5093053;28;20363;-73
2022/10/17 10:47:07;;;;;;;;;;;13.80;99.90;;;;;;5092850;28;20014;-74
2022/10/17 10:49:32;;;;;;;;;;;13.80;99.90;;;;;;5092432;28;20373;-74
2022/10/17 10:51:59;;;;;;;;;;;13.90;99.90;;;;;;5090979;28;19995;-74
2022/10/17 10:54:28;;;;;;;;;;;13.90;99.90;;;;;;5092513;28;19916;-74
2022/10/17 10:56:55;;;;;;;;;;;14.00;99.90;;;;;;5092222;28;20250;-74
2022/10/17 10:59:25;;;;;;;;;;;13.90;99.90;;;;;;5091601;28;19908;-73
2022/10/17 11:01:56;;;;;;;;;;;13.90;99.90;;;;;;5092750;28;19953;-75
2022/10/17 11:04:26;;;;;;;;;;;13.90;99.90;;;;;;5092602;28;19908;-73
2022/10/17 11:06:54;;;;;;;;;;;13.90;99.90;;;;;;5090900;28;19931;-74
2022/10/17 11:09:38;;;;;;;;;;;14.00;99.90;;;;;;5092750;28;19908;-74
2022/10/17 11:12:08;;;;;;;;;;;14.00;99.90;;;;;;5092877;28;19918;-73
2022/10/17 11:14:34;;;;;;;;;;;14.00;99.90;;;;;;5092997;28;19983;-74
2022/10/17 11:17:18;;;;;;;;;;;14.10;99.90;;;;;;5091236;28;20338;-74
2022/10/17 11:19:50;;;;;;;;;;;14.10;99.90;;;;;;5089852;28;19908;-75
2022/10/17 11:22:35;;;;;;;;;;;14.20;99.90;;;;;;5092075;28;19908;-74
2022/10/17 11:25:11;;;;;;;;;;;14.40;99.90;;;;;;5092069;28;19969;-74
2022/10/17 11:27:37;;;;;;;;;;;14.50;99.90;;;;;;5092262;28;19912;-76
2022/10/17 11:30:03;;;;;;;;;;;14.50;99.90;;;;;;5092950;28;19908;-75
2022/10/17 11:32:37;;;;;;;;;;;14.50;99.90;;;;;;5092363;28;19915;-74
2022/10/17 11:35:05;;;;;;;;;;;14.40;99.90;;;;;;5091272;28;19908;-74
2022/10/17 11:37:37;;;;;;;;;;;14.40;99.90;;;;;;5091760;28;19920;-75
2022/10/17 11:40:13;;;;;;;;;;;14.40;99.90;;;;;;5090646;28;19915;-75
2022/10/17 11:42:47;;;;;;;;;;;14.30;99.90;;;;;;5095501;28;19916;-74
2022/10/17 11:45:14;;;;;;;;;;;14.30;99.90;;;;;;5096687;28;20498;-74
2022/10/17 11:47:45;;;;;;;;;;;14.30;99.90;;;;;;5095950;28;20361;-75
2022/10/17 11:50:20;;;;;;;;;;;14.40;99.90;;;;;;5096568;28;19954;-75
2022/10/17 11:53:08;;;;;;;;;;;14.40;99.90;;;;;;5094636;28;20333;-75
2022/10/17 11:55:37;;;;;;;;;;;14.50;99.90;;;;;;5095540;28;20248;-74
2022/10/17 11:58:15;;;;;;;;;;;14.60;99.90;;;;;;5095683;28;19916;-73
2022/10/17 12:00:49;;;;;;;;;;;14.60;99.90;;;;;;5095321;28;20010;-74
2022/10/17 12:03:33;;;;;;;;;;;14.70;99.90;;;;;;5095403;28;19927;-75
2022/10/17 12:06:14;;;;;;;;;;;14.70;99.90;;;;;;5097487;28;19904;-74
2022/10/17 12:08:54;;;;;;;;;;;14.70;99.90;;;;;;5094625;28;20264;-75
2022/10/17 12:11:23;;;;;;;;;;;14.60;99.90;;;;;;5095465;28;19908;-74
2022/10/17 12:13:50;;;;;;;;;;;14.60;99.90;;;;;;5095406;28;20353;-74
2022/10/17 12:16:19;;;;;;;;;;;14.60;99.90;;;;;;5095701;28;19954;-74
2022/10/17 12:18:48;;;;;;;;;;;14.70;99.90;;;;;;5094071;28;19923;-74
2022/10/17 12:21:14;;;;;;;;;;;14.70;99.90;;;;;;5095481;28;20391;-74
2022/10/17 12:23:40;;;;;;;;;;;14.70;99.90;;;;;;5094624;28;19908;-75
2022/10/17 12:26:06;;;;;;;;;;;14.80;99.90;;;;;;5094824;28;19908;-74
2022/10/17 12:28:45;;;;;;;;;;;14.70;99.90;;;;;;5093292;28;19912;-74
2022/10/17 12:31:20;;;;;;;;;;;14.80;99.90;;;;;;5094917;28;19912;-74
2022/10/17 12:33:49;;;;;;;;;;;14.80;99.90;;;;;;5094822;28;20341;-75
2022/10/17 12:36:19;;;;;;;;;;;14.90;99.90;;;;;;5095764;28;19913;-75
2022/10/17 12:38:46;;;;;;;;;;;14.90;99.90;;;;;;5094320;28;20323;-74
2022/10/17 12:41:12;;;;;;;;;;;15.00;99.90;;;;;;5095230;28;19931;-74
2022/10/17 12:43:43;;;;;;;;;;;15.00;99.90;;;;;;5097102;28;19920;-74
2022/10/17 12:46:09;;;;;;;;;;;15.10;99.90;;;;;;5116393;28;19949;-74
2022/10/17 12:48:35;;;;;;;;;;;15.10;99.90;;;;;;5115591;28;19911;-74
2022/10/17 12:51:00;;;;;;;;;;;15.00;99.90;;;;;;5114551;28;19918;-74
2022/10/17 12:53:34;;;;;;;;;;;15.00;99.90;;;;;;5115155;28;19915;-75
2022/10/17 12:56:00;;;;;;;;;;;15.00;99.90;;;;;;5115870;28;19904;-74
2022/10/17 12:58:25;;;;;;;;;;;15.00;99.90;;;;;;5115389;28;20353;-75
2022/10/17 13:00:53;;;;;;;;;;;15.00;99.90;;;;;;5115155;28;20315;-74
2022/10/17 13:03:19;;;;;;;;;;;15.00;99.90;;;;;;5116001;28;19961;-75
2022/10/17 13:05:49;;;;;;;;;;;15.00;99.90;;;;;;5114789;28;19911;-75
2022/10/17 13:08:23;;;;;;;;;;;15.00;99.90;;;;;;5115073;28;19919;-75
2022/10/17 13:10:50;;;;;;;;;;;15.00;99.90;;;;;;5112673;28;19998;-75
2022/10/17 13:13:21;;;;;;;;;;;15.00;99.90;;;;;;5115515;28;19918;-75
2022/10/17 13:15:48;;;;;;;;;;;15.00;99.90;;;;;;5114915;28;19914;-73
2022/10/17 13:18:21;;;;;;;;;;;15.00;99.90;;;;;;5114747;28;20395;-74
2022/10/17 13:21:07;;;;;;;;;;;15.10;99.90;;;;;;5104156;28;19951;-75
2022/10/17 13:23:33;;;;;;;;;;;15.00;99.90;;;;;;5087393;28;20281;-75
2022/10/17 13:26:03;;;;;;;;;;;15.00;99.90;;;;;;5094519;28;19919;-74
2022/10/17 13:28:29;;;;;;;;;;;15.00;99.90;;;;;;5093608;28;19908;-74
2022/10/17 13:30:55;;;;;;;;;;;15.00;99.90;;;;;;5093465;28;20361;-74
2022/10/17 13:33:41;;;;;;;;;;;15.10;99.90;;;;;;5094481;28;20365;-75
2022/10/17 13:36:12;;;;;;;;;;;15.00;99.90;;;;;;5092737;28;19912;-75
2022/10/17 13:38:37;;;;;;;;;;;15.00;99.90;;;;;;5094110;28;19920;-75
2022/10/17 13:41:09;;;;;;;;;;;15.00;99.90;;;;;;5093157;28;19915;-75
2022/10/17 13:43:35;;;;;;;;;;;15.00;99.90;;;;;;5094703;28;20366;-75
2022/10/17 13:46:04;;;;;;;;;;;15.00;99.90;;;;;;5093692;28;20007;-75
2022/10/17 13:48:30;;;;;;;;;;;15.10;99.90;;;;;;5094812;28;20270;-73
2022/10/17 13:50:57;;;;;;;;;;;15.10;99.90;;;;;;5093883;28;19912;-74
2022/10/17 13:53:34;;;;;;;;;;;15.10;99.90;;;;;;5094143;28;20322;-75
2022/10/17 13:56:01;;;;;;;;;;;15.20;99.90;;;;;;5093704;28;19908;-74
2022/10/17 13:58:29;;;;;;;;;;;15.20;99.90;;;;;;5094317;28;19916;-74
2022/10/17 14:00:55;;;;;;;;;;;15.20;99.90;;;;;;5093301;28;20379;-74
2022/10/17 14:03:21;;;;;;;;;;;15.20;99.90;;;;;;5093483;28;20010;-74
2022/10/17 14:06:05;;;;;;;;;;;15.20;99.90;;;;;;5092775;28;19908;-73
2022/10/17 14:08:32;;;;;;;;;;;15.20;99.90;;;;;;5093639;28;19915;-74
2022/10/17 14:10:58;;;;;;;;;;;15.20;99.90;;;;;;5093238;28;19909;-74
2022/10/17 14:13:25;;;;;;;;;;;15.20;99.90;;;;;;5093496;28;19931;-74
2022/10/17 14:15:52;;;;;;;;;;;15.20;99.90;;;;;;5093681;28;19908;-75
2022/10/17 14:18:26;;;;;;;;;;;15.20;99.90;;;;;;5093497;28;19962;-75
2022/10/17 14:20:52;;;;;;;;;;;15.30;99.90;;;;;;5108252;28;19960;-75
2022/10/17 14:23:28;;;;;;;;;;;15.20;99.90;;;;;;5112887;28;19908;-74
2022/10/17 14:26:05;;;;;;;;;;;15.20;99.90;;;;;;5095243;28;19968;-75